Spokane, WA

8:34 PM PDT on September 02, 2015 (GMT -0700)
In town | | Change Station
CLOSE
Current Station
Personal Weather Station
Location: Medical Lake, WA
Elevation: 2421 ft
Nearby Weather Stations

Elev 2421 ft 47.58 °N, 117.69 °W | Updated 1 minute ago

Clear
Clear
56.7 °F
Feels Like 56.7 °F
N
1.7
Wind Variable Wind from ESE

Today
High -- | Low -- °F
--% Chance of Precip.
Yesterday
High -- | Low -- °F
Precip. -- in
6:10 AM 7:29 PM
Waning Gibbous, 74% visible
Pressure 29.85 in
Visibility 10.0 miles
Clouds Clear
Dew Point 39 °F
Humidity 51%
Rainfall 0.00 in
Snow Depth Not available.
UV 0 out of 12
Pollen 8.00 out of 12
Air Quality Not available.
Flu Activity Not available.
METAR KSKA 030258Z AUTO 23005KT 10SM CLR 14/00 A2985 RMK AO2 SLP107 T01441004 53003
Pressure 29.85 in
Visibility 10.0 miles
Clouds Clear
Dew Point 39 °F
Humidity 51%
Rainfall 0.00 in
Snow Depth Not available.
UV 0 out of 12
Pollen 8.00 out of 12
Air Quality Not available.
Flu Activity Not available.
METAR KSKA 030258Z AUTO 23005KT 10SM CLR 14/00 A2985 RMK AO2 SLP107 T01441004 53003

10-Day Weather Forecast

×

Almanac

Astronomy

Sep. 02, 2015 Rise Set
Actual Time
Civil Twilight
Nautical Twilight
Astronomical Twilight
Moon
Length of Visible Light
Length of Day
Tomorrow will be .
, % of the Moon is Illuminated

Today's Extremes

State Highs State Lows

Community

WunderPhotos

Upload Photos

1,851,902 photos uploaded!

WunderBlogs® & News

Nearby

Air Quality

  Air Quality AQ Index Pollutant
Not available.

Snow Depth

Station Depth Elevation

Earthquake Activity

City Distance Mag. Time & Date
Minimum magnitude displayed is 2.5.

Coastal Water Temperatures

Place Temperature

Stations

Nearby Weather Stations

Station Location Temp. Windchill Dew Point Humidity Wind Precip. Elev Updated Type